Due West, South Carolina
Current Conditions -  °F | °C
As of 4:56 PM on Friday 24 Oct 2014 (Local Time) from KGRD Reporting Station
Clear Clear  
Wind Chill: 67°   Ceiling: Unl
Heat Index: 67°   Visibility: 10mi
Dew Point: 47°   Wind: 3mph
Humidity: 49%   Direction: 310°NW
Pressure: 30.01"   Gusts: NA
Location:  34.33°N, 82.39°W
Report Text: KGRD 242056Z AUTO 31003KT 10SM CLR 19/08 A3001 RMK AO2 SLP160 T01940083 56015
Loading
Personal Weather Stations






























Interactive Weather Map
Tropical Storm Tracking
New forecast layout! Learn more

10-Day Weather Forecast

Advertisements
Track Severe Weather on mobile